createdAt,value
2022-09-30T00:00:06.793Z,99.90
2022-09-30T00:01:09.291Z,99.90
2022-09-30T00:02:12.197Z,99.90
2022-09-30T00:03:14.371Z,99.90
2022-09-30T00:04:24.731Z,99.90
2022-09-30T00:05:26.342Z,99.90
2022-09-30T00:06:29.622Z,99.90
2022-09-30T00:07:31.193Z,99.90
2022-09-30T00:08:32.930Z,99.90
2022-09-30T00:09:34.553Z,99.90
2022-09-30T00:10:36.170Z,99.90
2022-09-30T00:11:39.259Z,99.90
2022-09-30T00:12:41.642Z,99.90
2022-09-30T00:13:45.628Z,99.90
2022-09-30T00:14:47.210Z,99.90
2022-09-30T00:15:48.863Z,99.90
2022-09-30T00:16:50.512Z,99.90
2022-09-30T00:17:52.080Z,99.90
2022-09-30T00:18:56.366Z,99.90
2022-09-30T00:19:57.937Z,99.90
2022-09-30T00:20:59.834Z,99.90
2022-09-30T00:22:01.532Z,99.90
2022-09-30T00:23:03.104Z,99.90
2022-09-30T00:24:05.597Z,99.90
2022-09-30T00:25:07.408Z,99.90
2022-09-30T00:26:12.434Z,99.90
2022-09-30T00:27:18.047Z,99.90
2022-09-30T00:28:19.614Z,99.90
2022-09-30T00:29:21.280Z,99.90
2022-09-30T00:30:22.892Z,99.90
2022-09-30T00:31:26.901Z,99.90
2022-09-30T00:32:28.609Z,99.90
2022-09-30T00:33:30.307Z,99.90
2022-09-30T00:34:31.895Z,99.90
2022-09-30T00:35:33.763Z,99.90
2022-09-30T00:36:55.486Z,99.90
2022-09-30T00:37:57.208Z,99.90
2022-09-30T00:38:58.797Z,99.90
2022-09-30T00:40:00.563Z,99.90
2022-09-30T00:41:03.318Z,99.90
2022-09-30T00:42:10.888Z,99.90
2022-09-30T00:43:39.162Z,99.90
2022-09-30T00:44:53.364Z,99.90
2022-09-30T00:45:59.372Z,99.90
2022-09-30T00:47:01.066Z,99.90
2022-09-30T00:48:15.220Z,99.90
2022-09-30T00:49:22.619Z,99.90
2022-09-30T00:50:24.297Z,99.90
2022-09-30T00:51:36.705Z,99.90
2022-09-30T00:52:38.819Z,99.90
2022-09-30T00:53:52.349Z,99.90
2022-09-30T00:54:55.282Z,99.90
2022-09-30T00:56:04.909Z,99.90
2022-09-30T00:57:09.096Z,99.90
2022-09-30T00:58:15.102Z,99.90
2022-09-30T00:59:21.597Z,99.90
2022-09-30T01:00:23.412Z,99.90
2022-09-30T01:01:25.356Z,99.90
2022-09-30T01:02:27.142Z,99.90
2022-09-30T01:03:35.241Z,99.90
2022-09-30T01:04:38.287Z,99.90
2022-09-30T01:05:40.180Z,99.90
2022-09-30T01:06:42.337Z,99.90
2022-09-30T01:07:44.315Z,99.90
2022-09-30T01:08:46.924Z,99.90
2022-09-30T01:09:49.367Z,99.90
2022-09-30T01:10:51.014Z,99.90
2022-09-30T01:11:53.187Z,99.90
2022-09-30T01:12:55.696Z,99.90
2022-09-30T01:14:02.208Z,99.90
2022-09-30T01:15:05.059Z,99.90
2022-09-30T01:16:22.397Z,99.90
2022-09-30T01:17:49.125Z,99.90
2022-09-30T01:19:06.514Z,99.90
2022-09-30T01:20:45.552Z,99.90
2022-09-30T01:22:31.964Z,99.90
2022-09-30T01:24:00.306Z,99.90
2022-09-30T01:25:01.862Z,99.90
2022-09-30T01:26:28.236Z,99.90
2022-09-30T01:27:52.268Z,99.90
2022-09-30T01:29:15.777Z,99.90
2022-09-30T01:30:45.770Z,99.90
2022-09-30T01:32:19.572Z,99.90
2022-09-30T01:33:42.633Z,99.90
2022-09-30T01:35:17.976Z,99.90
2022-09-30T01:36:46.555Z,99.90
2022-09-30T01:38:22.164Z,99.90
2022-09-30T01:39:55.598Z,99.90
2022-09-30T01:41:02.951Z,99.90
2022-09-30T01:42:18.989Z,99.90
2022-09-30T01:43:39.292Z,99.90
2022-09-30T01:45:10.932Z,99.90
2022-09-30T01:46:37.142Z,99.90
2022-09-30T01:47:59.619Z,99.90
2022-09-30T01:49:19.077Z,99.90
2022-09-30T01:50:23.296Z,99.90
2022-09-30T01:51:35.066Z,99.90
2022-09-30T01:52:49.230Z,99.90
2022-09-30T01:53:55.666Z,99.90
2022-09-30T01:55:03.934Z,99.90
2022-09-30T01:56:17.449Z,99.90
2022-09-30T01:57:22.799Z,99.90
2022-09-30T01:58:53.115Z,99.90
2022-09-30T01:59:59.093Z,99.90
2022-09-30T02:01:06.090Z,99.90
2022-09-30T02:02:18.484Z,99.90
2022-09-30T02:03:29.500Z,99.90
2022-09-30T02:04:42.408Z,99.90
2022-09-30T02:05:57.803Z,99.90
2022-09-30T02:07:07.386Z,99.90
2022-09-30T02:08:18.464Z,99.90
2022-09-30T02:09:32.832Z,99.90
2022-09-30T02:10:39.746Z,99.90
2022-09-30T02:11:42.389Z,99.90
2022-09-30T02:12:57.804Z,99.90
2022-09-30T02:14:31.479Z,99.90
2022-09-30T02:15:40.567Z,99.90
2022-09-30T02:16:48.206Z,99.90
2022-09-30T02:18:02.501Z,99.90
2022-09-30T02:19:23.017Z,99.90
2022-09-30T02:20:35.202Z,99.90
2022-09-30T02:21:41.697Z,99.90
2022-09-30T02:22:49.981Z,99.90
2022-09-30T02:23:57.825Z,99.90
2022-09-30T02:25:05.584Z,99.90
2022-09-30T02:26:18.727Z,99.90
2022-09-30T02:27:30.001Z,99.90
2022-09-30T02:28:32.817Z,99.90
2022-09-30T02:29:39.558Z,99.90
2022-09-30T02:30:47.806Z,99.90
2022-09-30T02:31:53.949Z,99.90
2022-09-30T02:33:07.000Z,99.90
2022-09-30T02:34:16.318Z,99.90
2022-09-30T02:35:30.485Z,99.90
2022-09-30T02:37:00.589Z,99.90
2022-09-30T02:38:06.506Z,99.90
2022-09-30T02:39:15.226Z,99.90
2022-09-30T02:40:23.325Z,99.90
2022-09-30T02:41:28.023Z,99.90
2022-09-30T02:42:31.078Z,99.90
2022-09-30T02:43:34.026Z,99.90
2022-09-30T02:44:36.820Z,99.90
2022-09-30T02:46:03.592Z,99.90
2022-09-30T02:47:14.598Z,99.90
2022-09-30T02:48:29.782Z,99.90
2022-09-30T02:49:46.484Z,99.90
2022-09-30T02:51:05.108Z,99.90
2022-09-30T02:52:54.610Z,99.90
2022-09-30T02:54:28.098Z,99.90
2022-09-30T02:55:56.918Z,99.90
2022-09-30T02:57:11.750Z,99.90
2022-09-30T02:58:18.449Z,99.90
2022-09-30T02:59:21.535Z,99.90
2022-09-30T03:00:24.142Z,99.90
2022-09-30T03:01:25.975Z,99.90
2022-09-30T03:02:28.465Z,99.90
2022-09-30T03:03:34.997Z,99.90
2022-09-30T03:04:41.354Z,99.90
2022-09-30T03:05:43.865Z,99.90
2022-09-30T03:06:45.643Z,99.90
2022-09-30T03:07:47.392Z,99.90
2022-09-30T03:08:49.161Z,99.90
2022-09-30T03:09:56.919Z,99.90
2022-09-30T03:10:58.788Z,99.90
2022-09-30T03:12:26.561Z,99.90
2022-09-30T03:14:06.488Z,99.90
2022-09-30T03:15:22.502Z,99.90
2022-09-30T03:16:38.961Z,99.90
2022-09-30T03:18:14.932Z,99.90
2022-09-30T03:19:42.254Z,99.90
2022-09-30T03:20:58.936Z,99.90
2022-09-30T03:22:16.423Z,99.90
2022-09-30T03:23:38.289Z,99.90
2022-09-30T03:25:04.380Z,99.90
2022-09-30T03:26:12.252Z,99.90
2022-09-30T03:27:19.321Z,99.90
2022-09-30T03:28:46.805Z,99.90
2022-09-30T03:30:08.388Z,99.90
2022-09-30T03:31:20.178Z,99.90
2022-09-30T03:32:46.244Z,99.90
2022-09-30T03:34:02.985Z,99.90
2022-09-30T03:35:19.145Z,99.90
2022-09-30T03:36:40.407Z,99.90
2022-09-30T03:38:00.671Z,99.90
2022-09-30T03:39:25.018Z,99.90
2022-09-30T03:40:41.289Z,99.90
2022-09-30T03:42:10.590Z,99.90
2022-09-30T03:43:29.580Z,99.90
2022-09-30T03:44:40.118Z,99.90
2022-09-30T03:46:08.717Z,99.90
2022-09-30T03:47:14.511Z,99.90
2022-09-30T03:48:16.867Z,99.90
2022-09-30T03:49:29.869Z,99.90
2022-09-30T03:50:33.652Z,99.90
2022-09-30T03:51:38.385Z,99.90
2022-09-30T03:52:40.223Z,99.90
2022-09-30T03:53:43.615Z,99.90
2022-09-30T03:54:51.972Z,99.90
2022-09-30T03:55:54.023Z,99.90
2022-09-30T03:56:55.624Z,99.90
2022-09-30T03:57:58.375Z,99.90
2022-09-30T03:59:00.797Z,99.90
2022-09-30T04:00:02.859Z,99.90
2022-09-30T04:01:04.533Z,99.90
2022-09-30T04:02:07.211Z,99.90
2022-09-30T04:03:08.884Z,99.90
2022-09-30T04:04:10.476Z,99.90
2022-09-30T04:05:12.590Z,99.90
2022-09-30T04:06:14.885Z,99.90
2022-09-30T04:07:16.600Z,99.90
2022-09-30T04:08:18.216Z,99.90
2022-09-30T04:09:19.848Z,99.90
2022-09-30T04:10:21.514Z,99.90
2022-09-30T04:11:23.099Z,99.90
2022-09-30T04:12:24.795Z,99.90
2022-09-30T04:13:26.393Z,99.90
2022-09-30T04:14:28.052Z,99.90
2022-09-30T04:15:29.646Z,99.90
2022-09-30T04:16:31.989Z,99.90
2022-09-30T04:17:33.807Z,99.90
2022-09-30T04:18:37.209Z,99.90
2022-09-30T04:19:40.247Z,99.90
2022-09-30T04:20:41.995Z,99.90
2022-09-30T04:21:43.683Z,99.90
2022-09-30T04:22:45.283Z,99.90
2022-09-30T04:23:46.974Z,99.90
2022-09-30T04:24:48.555Z,99.90
2022-09-30T04:25:54.374Z,99.90
2022-09-30T04:26:55.952Z,99.90
2022-09-30T04:27:57.777Z,99.90
2022-09-30T04:28:59.456Z,99.90
2022-09-30T04:30:01.096Z,99.90
2022-09-30T04:31:05.076Z,99.90
2022-09-30T04:32:06.800Z,99.90
2022-09-30T04:33:08.438Z,99.90
2022-09-30T04:34:11.767Z,99.90
2022-09-30T04:35:14.557Z,99.90
2022-09-30T04:36:18.072Z,99.90
2022-09-30T04:37:20.107Z,99.90
2022-09-30T04:38:22.296Z,99.90
2022-09-30T04:39:24.022Z,99.90
2022-09-30T04:40:26.123Z,99.90
2022-09-30T04:41:27.788Z,99.90
2022-09-30T04:42:29.351Z,99.90
2022-09-30T04:43:31.589Z,99.90
2022-09-30T04:44:33.202Z,99.90
2022-09-30T04:45:34.816Z,99.90
2022-09-30T04:46:37.041Z,99.90
2022-09-30T04:47:39.905Z,99.90
2022-09-30T04:48:45.836Z,99.90
2022-09-30T04:49:47.543Z,99.90
2022-09-30T04:50:49.368Z,99.90
2022-09-30T04:51:50.940Z,99.90
2022-09-30T04:52:52.706Z,99.90
2022-09-30T04:53:54.455Z,99.90
2022-09-30T04:54:56.080Z,99.90
2022-09-30T04:56:01.827Z,99.90
2022-09-30T04:57:03.527Z,99.90
2022-09-30T04:58:05.144Z,99.90
2022-09-30T04:59:07.065Z,99.90
2022-09-30T05:00:09.595Z,99.90
2022-09-30T05:01:13.924Z,99.90
2022-09-30T05:02:15.603Z,99.90
2022-09-30T05:03:18.409Z,99.90
2022-09-30T05:04:20.092Z,99.90
2022-09-30T05:05:21.731Z,99.90
2022-09-30T05:06:23.378Z,99.90
2022-09-30T05:07:25.018Z,99.90
2022-09-30T05:08:27.284Z,99.90
2022-09-30T05:09:28.948Z,99.90
2022-09-30T05:10:30.628Z,99.90
2022-09-30T05:11:32.704Z,99.90
2022-09-30T05:12:34.879Z,99.90
2022-09-30T05:13:40.988Z,99.90
2022-09-30T05:14:42.618Z,99.90
2022-09-30T05:15:44.197Z,99.90
2022-09-30T05:16:45.774Z,99.90
2022-09-30T05:17:49.408Z,99.90
2022-09-30T05:18:51.199Z,99.90
2022-09-30T05:19:52.961Z,99.90
2022-09-30T05:20:57.467Z,99.90
2022-09-30T05:21:59.058Z,99.90
2022-09-30T05:23:01.085Z,99.90
2022-09-30T05:24:03.208Z,99.90
2022-09-30T05:25:05.500Z,99.90
2022-09-30T05:26:11.909Z,99.90
2022-09-30T05:27:14.054Z,99.90
2022-09-30T05:28:15.800Z,99.90
2022-09-30T05:29:17.528Z,99.90
2022-09-30T05:30:19.158Z,99.90
2022-09-30T05:31:20.927Z,99.90
2022-09-30T05:32:22.787Z,99.90
2022-09-30T05:33:24.554Z,99.90
2022-09-30T05:34:26.269Z,99.90
2022-09-30T05:35:28.610Z,99.90
2022-09-30T05:36:30.414Z,99.90
2022-09-30T05:37:33.327Z,99.90
2022-09-30T05:38:35.160Z,99.90
2022-09-30T05:39:36.756Z,99.90
2022-09-30T05:40:39.742Z,99.90
2022-09-30T05:41:41.441Z,99.90
2022-09-30T05:42:47.271Z,99.90
2022-09-30T05:43:49.563Z,99.90
2022-09-30T05:44:51.154Z,99.90
2022-09-30T05:45:57.100Z,99.90
2022-09-30T05:46:59.615Z,99.90
2022-09-30T05:48:01.861Z,99.90
2022-09-30T05:49:03.594Z,99.90
2022-09-30T05:50:06.256Z,99.90
2022-09-30T05:51:08.033Z,99.90
2022-09-30T05:52:09.601Z,99.90
2022-09-30T05:53:11.187Z,99.90
2022-09-30T05:54:12.848Z,99.90
2022-09-30T05:55:14.626Z,99.90
2022-09-30T05:56:16.440Z,99.90
2022-09-30T05:57:18.033Z,99.90
2022-09-30T05:58:21.160Z,99.90
2022-09-30T05:59:22.841Z,99.90
2022-09-30T06:00:24.573Z,99.90
2022-09-30T06:01:26.299Z,99.90
2022-09-30T06:02:28.021Z,99.90
2022-09-30T06:03:29.665Z,99.90
2022-09-30T06:04:31.318Z,99.90
2022-09-30T06:05:32.921Z,99.90
2022-09-30T06:06:34.554Z,99.90
2022-09-30T06:07:37.062Z,99.90
2022-09-30T06:08:40.197Z,99.90
2022-09-30T06:09:41.944Z,99.90
2022-09-30T06:10:44.728Z,99.90
2022-09-30T06:11:46.333Z,99.90
2022-09-30T06:12:48.139Z,99.90
2022-09-30T06:13:49.907Z,99.90
2022-09-30T06:14:51.496Z,99.90
2022-09-30T06:16:00.628Z,99.90
2022-09-30T06:17:02.274Z,99.90
2022-09-30T06:18:04.239Z,99.90
2022-09-30T06:19:06.766Z,99.90
2022-09-30T06:20:10.289Z,99.90
2022-09-30T06:21:14.195Z,99.90
2022-09-30T06:22:16.827Z,99.90
2022-09-30T06:23:18.500Z,99.90
2022-09-30T06:24:20.156Z,99.90
2022-09-30T06:25:22.276Z,99.90
2022-09-30T06:26:24.098Z,99.90
2022-09-30T06:27:25.701Z,99.90
2022-09-30T06:28:27.579Z,99.90
2022-09-30T06:29:29.199Z,99.90
2022-09-30T06:30:35.067Z,99.90
2022-09-30T06:31:37.253Z,99.90
2022-09-30T06:32:39.159Z,99.90
2022-09-30T06:33:42.178Z,99.90
2022-09-30T06:34:44.008Z,99.90
2022-09-30T06:35:47.382Z,99.90
2022-09-30T06:36:48.969Z,99.90
2022-09-30T06:37:53.918Z,99.90
2022-09-30T06:38:55.500Z,99.90
2022-09-30T06:39:57.126Z,99.90
2022-09-30T06:40:59.946Z,99.90
2022-09-30T06:42:01.596Z,99.90
2022-09-30T06:43:04.571Z,99.90
2022-09-30T06:44:08.126Z,99.90
2022-09-30T06:45:19.204Z,99.90
2022-09-30T06:46:31.144Z,99.90
2022-09-30T06:47:33.330Z,99.90
2022-09-30T06:48:38.677Z,99.90
2022-09-30T06:49:49.123Z,99.90
2022-09-30T06:51:01.533Z,99.90
2022-09-30T06:52:03.982Z,99.90
2022-09-30T06:53:07.654Z,99.90
2022-09-30T06:54:09.599Z,99.90
2022-09-30T06:55:11.170Z,99.90
2022-09-30T06:56:12.794Z,99.90
2022-09-30T06:57:14.411Z,99.90
2022-09-30T06:58:16.631Z,99.90
2022-09-30T06:59:18.352Z,99.90
2022-09-30T07:00:20.323Z,99.90
2022-09-30T07:01:22.047Z,99.90
2022-09-30T07:02:23.805Z,99.90
2022-09-30T07:03:29.250Z,99.90
2022-09-30T07:04:30.997Z,99.90
2022-09-30T07:05:32.699Z,99.90
2022-09-30T07:06:34.404Z,99.90
2022-09-30T07:07:36.794Z,99.90
2022-09-30T07:08:38.890Z,99.90
2022-09-30T07:09:40.604Z,99.90
2022-09-30T07:10:42.198Z,99.90
2022-09-30T07:11:44.377Z,99.90
2022-09-30T07:12:52.796Z,99.90
2022-09-30T07:13:55.417Z,99.90
2022-09-30T07:14:57.149Z,99.90
2022-09-30T07:15:58.842Z,99.90
2022-09-30T07:17:03.642Z,99.90
2022-09-30T07:18:05.656Z,99.90
2022-09-30T07:19:10.075Z,99.90
2022-09-30T07:20:11.723Z,99.90
2022-09-30T07:21:18.346Z,99.90
2022-09-30T07:22:34.422Z,99.90
2022-09-30T07:23:36.138Z,99.90
2022-09-30T07:24:37.729Z,99.90
2022-09-30T07:25:39.492Z,99.90
2022-09-30T07:26:41.146Z,99.90
2022-09-30T07:27:42.842Z,99.90
2022-09-30T07:28:45.105Z,99.90
2022-09-30T07:31:31.795Z,99.90
2022-09-30T07:32:33.789Z,99.90
2022-09-30T07:33:35.691Z,99.90
2022-09-30T07:34:37.865Z,99.90
2022-09-30T07:35:39.487Z,99.90
2022-09-30T07:36:41.725Z,99.90
2022-09-30T07:37:43.674Z,99.90
2022-09-30T07:38:49.797Z,99.90
2022-09-30T07:39:51.591Z,99.90
2022-09-30T07:41:26.977Z,99.90
2022-09-30T07:42:29.511Z,99.90
2022-09-30T07:43:40.812Z,99.90
2022-09-30T07:44:44.190Z,99.90
2022-09-30T07:45:46.041Z,99.90
2022-09-30T07:46:48.013Z,99.90
2022-09-30T07:47:53.649Z,99.90
2022-09-30T07:49:00.462Z,99.90
2022-09-30T07:50:04.004Z,99.90
2022-09-30T07:51:05.772Z,99.90
2022-09-30T07:52:08.729Z,99.90
2022-09-30T07:53:10.335Z,99.90
2022-09-30T07:54:16.115Z,99.90
2022-09-30T07:55:17.775Z,99.90
2022-09-30T07:56:20.752Z,99.90
2022-09-30T07:57:22.328Z,99.90
2022-09-30T07:58:24.227Z,99.90
2022-09-30T07:59:27.521Z,99.90
2022-09-30T08:00:44.363Z,99.90
2022-09-30T08:01:46.983Z,99.90
2022-09-30T08:02:48.575Z,99.90
2022-09-30T08:03:53.935Z,99.90
2022-09-30T08:04:55.521Z,99.90
2022-09-30T08:06:02.800Z,99.90
2022-09-30T08:07:05.367Z,99.90
2022-09-30T08:08:07.004Z,99.90
2022-09-30T08:09:09.361Z,99.90
2022-09-30T08:10:11.148Z,99.90
2022-09-30T08:11:14.621Z,99.90
2022-09-30T08:12:16.280Z,99.90
2022-09-30T08:13:19.963Z,99.90
2022-09-30T08:14:26.715Z,99.90
2022-09-30T08:15:28.628Z,99.90
2022-09-30T08:16:30.650Z,99.90
2022-09-30T08:17:32.284Z,99.90
2022-09-30T08:18:33.971Z,99.90
2022-09-30T08:19:36.448Z,99.90
2022-09-30T08:20:38.061Z,99.90
2022-09-30T08:21:39.712Z,99.90
2022-09-30T08:22:41.312Z,99.90
2022-09-30T08:23:42.924Z,99.90
2022-09-30T08:24:44.564Z,99.90
2022-09-30T08:25:46.265Z,99.90
2022-09-30T08:26:47.973Z,99.90
2022-09-30T08:27:49.753Z,99.90
2022-09-30T08:28:51.457Z,99.90
2022-09-30T08:29:56.595Z,99.90
2022-09-30T08:31:07.137Z,99.90
2022-09-30T08:32:08.814Z,99.90
2022-09-30T08:33:10.524Z,99.90
2022-09-30T08:34:12.105Z,99.90
2022-09-30T08:35:13.763Z,99.90
2022-09-30T08:36:18.178Z,99.90
2022-09-30T08:37:19.880Z,99.90
2022-09-30T08:38:21.642Z,99.90
2022-09-30T08:39:23.258Z,99.90
2022-09-30T08:40:28.295Z,99.90
2022-09-30T08:41:55.716Z,99.90
2022-09-30T08:43:39.357Z,99.90
2022-09-30T08:44:47.589Z,99.90
2022-09-30T08:45:55.317Z,99.90
2022-09-30T08:47:03.212Z,99.90
2022-09-30T08:48:33.849Z,99.90
2022-09-30T08:49:47.148Z,99.90
2022-09-30T08:51:06.840Z,99.90
2022-09-30T08:52:24.530Z,99.90
2022-09-30T08:53:42.226Z,99.90
2022-09-30T08:54:47.961Z,99.90
2022-09-30T08:55:50.208Z,99.90
2022-09-30T08:56:52.325Z,99.90
2022-09-30T08:57:56.395Z,41.30
2022-09-30T08:59:26.790Z,1.00
2022-09-30T09:00:28.579Z,1.00
2022-09-30T09:01:44.341Z,1.00
2022-09-30T09:02:51.613Z,1.00
2022-09-30T09:03:53.868Z,1.00
2022-09-30T09:05:01.790Z,1.00
2022-09-30T09:06:03.342Z,1.00
2022-09-30T09:07:09.208Z,1.00
2022-09-30T09:08:39.947Z,1.00
2022-09-30T09:10:05.402Z,1.00
2022-09-30T09:11:30.928Z,1.00
2022-09-30T09:12:46.577Z,1.00
2022-09-30T09:14:00.806Z,1.00
2022-09-30T09:15:37.167Z,1.00
2022-09-30T09:17:15.996Z,1.00
2022-09-30T09:18:29.189Z,1.00
2022-09-30T09:19:41.812Z,1.00
2022-09-30T09:20:58.449Z,1.00
2022-09-30T09:22:02.575Z,1.00
2022-09-30T09:23:08.909Z,1.00
2022-09-30T09:24:18.134Z,1.00
2022-09-30T09:26:26.002Z,1.00
2022-09-30T09:27:36.906Z,1.00
2022-09-30T09:29:10.953Z,1.00
2022-09-30T09:30:17.207Z,1.00
2022-09-30T09:31:20.112Z,1.00
2022-09-30T09:32:21.805Z,1.00
2022-09-30T09:33:29.674Z,1.00
2022-09-30T09:34:31.702Z,1.00
2022-09-30T09:36:03.627Z,1.00
2022-09-30T09:37:50.134Z,1.00
2022-09-30T09:39:08.980Z,1.00
2022-09-30T09:40:24.512Z,1.00
2022-09-30T09:41:37.873Z,1.00
2022-09-30T09:42:57.121Z,1.00
2022-09-30T09:44:13.158Z,1.00
2022-09-30T09:45:36.973Z,1.00
2022-09-30T09:46:48.899Z,1.00
2022-09-30T09:47:51.904Z,1.00
2022-09-30T09:49:50.144Z,1.00
2022-09-30T09:51:03.266Z,1.00
2022-09-30T09:52:13.669Z,1.00
2022-09-30T09:53:33.827Z,1.00
2022-09-30T09:54:41.289Z,1.00
2022-09-30T09:55:42.961Z,1.00
2022-09-30T09:56:44.909Z,1.00
2022-09-30T09:57:47.150Z,1.00
2022-09-30T09:59:08.935Z,1.00
2022-09-30T10:00:39.599Z,1.00
2022-09-30T10:01:45.243Z,1.00
2022-09-30T10:02:58.541Z,1.00
2022-09-30T10:04:15.770Z,1.00
2022-09-30T10:05:26.597Z,1.00
2022-09-30T10:06:52.185Z,1.00
2022-09-30T10:08:10.054Z,1.00
2022-09-30T10:09:33.127Z,1.00
2022-09-30T10:10:50.416Z,1.00
2022-09-30T10:12:07.072Z,1.00
2022-09-30T10:13:20.354Z,1.00
2022-09-30T10:14:22.281Z,1.00
2022-09-30T10:15:26.309Z,1.00
2022-09-30T10:16:38.011Z,1.00
2022-09-30T10:17:40.078Z,1.00
2022-09-30T10:18:42.021Z,1.00
2022-09-30T10:19:57.751Z,1.00
2022-09-30T10:21:08.651Z,1.00
2022-09-30T10:22:11.745Z,1.00
2022-09-30T10:23:28.748Z,1.00
2022-09-30T10:24:31.442Z,1.00
2022-09-30T10:25:33.146Z,1.00
2022-09-30T10:26:47.768Z,1.00
2022-09-30T10:27:50.778Z,1.00
2022-09-30T10:29:05.965Z,1.00
2022-09-30T10:30:08.101Z,1.00
2022-09-30T10:31:34.545Z,1.00
2022-09-30T10:32:36.475Z,1.00
2022-09-30T10:33:47.093Z,1.00
2022-09-30T10:34:56.488Z,1.00
2022-09-30T10:36:08.629Z,1.00
2022-09-30T10:37:22.432Z,1.00
2022-09-30T10:38:29.213Z,1.00
2022-09-30T10:39:33.680Z,1.00
2022-09-30T10:40:35.631Z,1.00
2022-09-30T10:41:38.656Z,1.00
2022-09-30T10:42:41.888Z,1.00
2022-09-30T10:43:49.476Z,1.00
2022-09-30T10:45:02.041Z,1.00
2022-09-30T10:46:25.369Z,1.00
2022-09-30T10:47:26.973Z,1.00
2022-09-30T10:48:33.028Z,1.00
2022-09-30T10:49:49.347Z,1.00
2022-09-30T10:50:53.889Z,1.00
2022-09-30T10:51:57.151Z,1.00
2022-09-30T10:53:00.807Z,1.00
2022-09-30T10:54:04.281Z,1.00
2022-09-30T10:55:29.353Z,1.00
2022-09-30T10:56:44.328Z,1.00
2022-09-30T10:57:47.668Z,1.00
2022-09-30T11:00:14.929Z,1.00
2022-09-30T11:01:27.693Z,1.00
2022-09-30T11:02:29.497Z,1.00
2022-09-30T11:03:38.495Z,1.00
2022-09-30T11:04:48.197Z,1.00
2022-09-30T11:05:50.441Z,1.00
2022-09-30T11:06:58.965Z,1.00
2022-09-30T11:08:19.739Z,1.00
2022-09-30T11:09:33.362Z,1.00
2022-09-30T11:10:57.298Z,1.00
2022-09-30T11:12:10.993Z,1.00
2022-09-30T11:13:24.943Z,1.00
2022-09-30T11:14:55.430Z,1.00
2022-09-30T11:16:09.257Z,1.00
2022-09-30T11:17:37.283Z,1.00
2022-09-30T11:18:49.970Z,1.00
2022-09-30T11:20:09.170Z,99.90
2022-09-30T11:21:19.892Z,99.90
2022-09-30T11:22:58.192Z,99.90
2022-09-30T11:24:15.248Z,99.90
2022-09-30T11:25:24.849Z,99.90
2022-09-30T11:26:40.703Z,99.90
2022-09-30T11:27:54.349Z,99.90
2022-09-30T11:29:34.213Z,99.90
2022-09-30T11:30:44.874Z,99.90
2022-09-30T11:32:27.444Z,99.90
2022-09-30T11:33:45.760Z,99.90
2022-09-30T11:35:24.912Z,99.90
2022-09-30T11:37:00.869Z,40.30
2022-09-30T11:38:39.792Z,1.00
2022-09-30T11:40:15.212Z,1.00
2022-09-30T11:41:38.563Z,1.00
2022-09-30T11:42:46.301Z,1.00
2022-09-30T11:43:53.906Z,1.00
2022-09-30T11:45:25.387Z,1.00
2022-09-30T11:46:30.258Z,99.90
2022-09-30T11:47:50.910Z,1.00
2022-09-30T11:49:04.586Z,1.00
2022-09-30T11:50:30.467Z,99.90
2022-09-30T11:51:45.636Z,99.90
2022-09-30T11:53:13.918Z,99.90
2022-09-30T11:54:30.792Z,1.00
2022-09-30T11:55:41.250Z,1.00
2022-09-30T11:56:57.800Z,99.90
2022-09-30T11:58:40.380Z,1.00
2022-09-30T12:00:01.239Z,99.90
2022-09-30T12:01:21.699Z,85.60
2022-09-30T12:02:38.257Z,99.90
2022-09-30T12:03:45.514Z,99.90
2022-09-30T12:04:48.687Z,39.60
2022-09-30T12:05:59.059Z,1.00
2022-09-30T12:07:12.288Z,94.60
2022-09-30T12:08:36.005Z,99.90
2022-09-30T12:09:44.669Z,8.10
2022-09-30T12:10:54.062Z,1.00
2022-09-30T12:12:16.811Z,99.90
2022-09-30T12:13:26.740Z,99.90
2022-09-30T12:14:34.544Z,1.00
2022-09-30T12:15:37.308Z,1.00
2022-09-30T12:16:39.884Z,1.00
2022-09-30T12:17:46.401Z,1.00
2022-09-30T12:18:57.892Z,1.00
2022-09-30T12:20:16.782Z,1.00
2022-09-30T12:21:26.411Z,1.00
2022-09-30T12:22:33.252Z,1.00
2022-09-30T12:23:49.183Z,1.00
2022-09-30T12:24:50.835Z,1.00
2022-09-30T12:25:58.539Z,1.00
2022-09-30T12:27:01.933Z,1.00
2022-09-30T12:28:29.124Z,1.00
2022-09-30T12:30:04.254Z,1.00
2022-09-30T12:31:43.445Z,1.00
2022-09-30T12:32:46.326Z,1.00
2022-09-30T12:34:19.528Z,1.00
2022-09-30T12:35:36.473Z,1.00
2022-09-30T12:36:59.576Z,1.00
2022-09-30T12:38:19.451Z,1.00
2022-09-30T12:39:35.352Z,1.00
2022-09-30T12:40:52.363Z,1.00
2022-09-30T12:42:13.568Z,1.00
2022-09-30T12:43:17.861Z,1.00
2022-09-30T12:44:41.026Z,1.00
2022-09-30T12:46:09.162Z,1.00
2022-09-30T12:47:49.543Z,1.00
2022-09-30T12:48:59.162Z,1.00
2022-09-30T12:50:07.424Z,1.00
2022-09-30T12:51:10.029Z,99.90
2022-09-30T12:52:15.908Z,1.00
2022-09-30T12:53:18.700Z,99.90
2022-09-30T12:54:37.488Z,1.00
2022-09-30T12:55:41.843Z,1.00
2022-09-30T12:56:46.944Z,99.90
2022-09-30T12:57:49.777Z,99.90
2022-09-30T12:58:52.272Z,99.90
2022-09-30T13:00:02.479Z,99.90
2022-09-30T13:01:15.045Z,99.90
2022-09-30T13:03:03.256Z,99.90
2022-09-30T13:04:04.803Z,99.90
2022-09-30T13:05:31.014Z,99.90
2022-09-30T13:06:47.542Z,99.90
2022-09-30T13:08:04.581Z,1.00
2022-09-30T13:09:11.308Z,99.90
2022-09-30T13:10:28.256Z,99.90
2022-09-30T13:11:48.303Z,99.90
2022-09-30T13:13:19.149Z,99.90
2022-09-30T13:14:39.403Z,99.90
2022-09-30T13:15:45.541Z,99.90
2022-09-30T13:17:02.259Z,99.90
2022-09-30T13:18:26.907Z,99.90
2022-09-30T13:19:40.901Z,99.90
2022-09-30T13:20:56.306Z,1.00
2022-09-30T13:22:19.825Z,1.00
2022-09-30T13:23:39.134Z,1.00
2022-09-30T13:25:00.425Z,1.00
2022-09-30T13:26:02.989Z,1.00
2022-09-30T13:27:13.358Z,1.00
2022-09-30T13:28:15.037Z,1.00
2022-09-30T13:29:16.710Z,1.00
2022-09-30T13:30:18.375Z,1.00
2022-09-30T13:31:25.364Z,1.00
2022-09-30T13:32:37.283Z,1.00
2022-09-30T13:33:44.596Z,1.00
2022-09-30T13:34:55.453Z,1.00
2022-09-30T13:36:07.727Z,1.00
2022-09-30T13:37:34.659Z,1.00
2022-09-30T13:38:40.574Z,1.00
2022-09-30T13:39:53.757Z,1.00
2022-09-30T13:41:02.406Z,1.00
2022-09-30T13:42:07.522Z,1.00
2022-09-30T13:43:22.074Z,1.00
2022-09-30T13:45:02.350Z,1.00
2022-09-30T13:46:30.208Z,1.00
2022-09-30T13:47:39.144Z,1.00
2022-09-30T13:48:48.031Z,1.00
2022-09-30T13:50:02.190Z,1.00
2022-09-30T13:51:14.793Z,1.00
2022-09-30T13:52:28.066Z,1.00
2022-09-30T13:53:40.264Z,1.00
2022-09-30T13:54:47.474Z,1.00
2022-09-30T13:55:53.700Z,1.00
2022-09-30T13:56:56.161Z,1.00
2022-09-30T13:58:23.511Z,1.00
2022-09-30T13:59:55.339Z,1.00
2022-09-30T14:01:18.948Z,1.00
2022-09-30T14:02:42.661Z,1.00
2022-09-30T14:03:56.647Z,1.00
2022-09-30T14:05:42.975Z,1.00
2022-09-30T14:07:10.374Z,1.00
2022-09-30T14:08:49.760Z,1.00
2022-09-30T14:10:14.131Z,1.00
2022-09-30T14:11:23.827Z,1.00
2022-09-30T14:12:46.192Z,1.00
2022-09-30T14:14:22.630Z,1.00
2022-09-30T14:15:45.167Z,1.00
2022-09-30T14:17:05.972Z,1.00
2022-09-30T14:18:23.257Z,1.00
2022-09-30T14:20:01.033Z,1.00
2022-09-30T14:21:28.141Z,1.00
2022-09-30T14:22:32.961Z,1.00
2022-09-30T14:23:36.526Z,1.00
2022-09-30T14:24:40.231Z,1.00
2022-09-30T14:25:57.024Z,1.00
2022-09-30T14:27:19.463Z,1.00
2022-09-30T14:28:49.800Z,1.00
2022-09-30T14:30:11.577Z,1.00
2022-09-30T14:31:16.112Z,1.00
2022-09-30T14:32:25.965Z,1.00
2022-09-30T14:33:28.383Z,1.00
2022-09-30T14:34:30.979Z,1.00
2022-09-30T14:35:34.697Z,1.00
2022-09-30T14:36:36.422Z,1.00
2022-09-30T14:37:45.119Z,1.00
2022-09-30T14:38:53.761Z,1.00
2022-09-30T14:39:56.083Z,1.00
2022-09-30T14:41:07.856Z,1.00
2022-09-30T14:42:17.697Z,1.00
2022-09-30T14:43:38.859Z,1.00
2022-09-30T14:44:43.575Z,1.00
2022-09-30T14:45:50.888Z,1.00
2022-09-30T14:47:00.065Z,1.00
2022-09-30T14:48:08.155Z,1.00
2022-09-30T14:49:16.447Z,1.00
2022-09-30T14:50:26.281Z,1.00
2022-09-30T14:51:34.746Z,1.00
2022-09-30T14:52:45.179Z,1.00
2022-09-30T14:53:58.306Z,1.00
2022-09-30T14:54:59.911Z,1.00
2022-09-30T14:56:04.463Z,1.00
2022-09-30T14:57:16.503Z,1.00
2022-09-30T14:58:24.504Z,99.90
2022-09-30T14:59:34.663Z,99.90
2022-09-30T15:00:37.855Z,99.90
2022-09-30T15:01:40.643Z,99.90
2022-09-30T15:02:46.731Z,99.90
2022-09-30T15:04:04.340Z,1.00
2022-09-30T15:05:06.270Z,1.00
2022-09-30T15:06:19.116Z,1.00
2022-09-30T15:07:20.843Z,1.00
2022-09-30T15:08:23.396Z,1.00
2022-09-30T15:09:39.810Z,1.00